createdAt,value
2023-02-23T00:03:56.895Z,3.85
2023-02-23T00:09:02.210Z,4.00
2023-02-23T00:14:05.935Z,4.05
2023-02-23T00:19:09.284Z,3.90
2023-02-23T00:24:16.848Z,3.10
2023-02-23T00:29:22.891Z,3.90
2023-02-23T00:34:26.240Z,4.13
2023-02-23T00:39:30.983Z,3.88
2023-02-23T00:44:35.046Z,3.97
2023-02-23T00:49:39.520Z,3.88
2023-02-23T00:54:44.499Z,3.90
2023-02-23T00:59:47.790Z,4.18
2023-02-23T01:04:52.063Z,4.28
2023-02-23T01:09:56.798Z,3.63
2023-02-23T01:15:00.198Z,4.10
2023-02-23T01:20:08.072Z,4.30
2023-02-23T01:25:13.502Z,4.20
2023-02-23T01:30:17.263Z,4.25
2023-02-23T01:35:20.612Z,4.45
2023-02-23T01:40:29.896Z,4.15
2023-02-23T01:45:35.868Z,4.88
2023-02-23T01:50:45.195Z,4.80
2023-02-23T01:55:55.133Z,4.35
2023-02-23T02:01:02.554Z,4.47
2023-02-23T02:06:09.804Z,4.07
2023-02-23T02:11:26.216Z,4.65
2023-02-23T02:16:55.844Z,4.00
2023-02-23T02:22:32.767Z,4.25
2023-02-23T02:27:58.647Z,3.95
2023-02-23T02:33:53.355Z,4.60
2023-02-23T02:39:08.062Z,4.63
2023-02-23T02:44:18.951Z,3.83
2023-02-23T02:49:30.680Z,4.43
2023-02-23T02:54:41.154Z,4.68
2023-02-23T03:00:03.177Z,4.43
2023-02-23T03:05:32.628Z,4.25
2023-02-23T03:11:01.200Z,4.72
2023-02-23T03:16:39.572Z,4.72
2023-02-23T03:22:08.032Z,4.80
2023-02-23T03:27:41.790Z,4.47
2023-02-23T03:33:07.199Z,4.80
2023-02-23T03:38:33.140Z,4.15
2023-02-23T03:44:00.645Z,4.85
2023-02-23T03:49:23.749Z,4.47
2023-02-23T03:54:49.663Z,3.97
2023-02-23T04:00:16.439Z,4.28
2023-02-23T04:05:39.646Z,3.72
2023-02-23T04:11:06.627Z,5.03
2023-02-23T04:16:11.981Z,4.70
2023-02-23T04:21:15.262Z,4.35
2023-02-23T04:26:18.574Z,4.00
2023-02-23T04:31:25.391Z,4.47
2023-02-23T04:36:28.958Z,4.55
2023-02-23T04:41:32.273Z,4.05
2023-02-23T04:46:37.531Z,4.85
2023-02-23T04:51:40.892Z,4.10
2023-02-23T04:56:44.173Z,4.07
2023-02-23T05:01:49.595Z,3.92
2023-02-23T05:06:53.424Z,3.75
2023-02-23T05:11:56.757Z,3.60
2023-02-23T05:17:01.539Z,4.05
2023-02-23T05:22:05.237Z,4.40
2023-02-23T05:27:09.389Z,5.00
2023-02-23T05:32:14.146Z,3.58
2023-02-23T05:37:17.439Z,4.90
2023-02-23T05:42:20.974Z,4.90
2023-02-23T05:47:25.715Z,4.97
2023-02-23T05:52:29.021Z,4.50
2023-02-23T05:57:32.409Z,5.20
2023-02-23T06:02:37.618Z,4.88
2023-02-23T06:07:40.983Z,4.60
2023-02-23T06:12:44.256Z,4.60
2023-02-23T06:17:48.941Z,4.63
2023-02-23T06:22:52.262Z,5.88
2023-02-23T06:27:55.572Z,5.00
2023-02-23T06:33:00.301Z,4.85
2023-02-23T06:38:04.697Z,5.13
2023-02-23T06:43:08.084Z,4.97
2023-02-23T06:48:12.934Z,5.55
2023-02-23T06:53:16.324Z,4.85
2023-02-23T06:58:19.642Z,5.40
2023-02-23T07:03:24.780Z,4.68
2023-02-23T07:08:28.243Z,5.18
2023-02-23T07:13:31.623Z,5.57
2023-02-23T07:18:36.635Z,5.15
2023-02-23T07:23:40.089Z,5.10
2023-02-23T07:28:44.033Z,5.28
2023-02-23T07:33:48.707Z,4.63
2023-02-23T07:38:52.243Z,6.22
2023-02-23T07:43:55.626Z,5.70
2023-02-23T07:49:00.380Z,4.60
2023-02-23T07:54:05.843Z,4.85
2023-02-23T07:59:26.113Z,5.80
2023-02-23T08:04:32.122Z,5.15
2023-02-23T08:09:36.014Z,5.95
2023-02-23T08:14:39.349Z,5.63
2023-02-23T08:19:44.076Z,5.05
2023-02-23T08:24:47.437Z,5.53
2023-02-23T08:29:52.585Z,4.80
2023-02-23T08:34:57.982Z,5.60
2023-02-23T08:40:01.843Z,4.43
2023-02-23T08:45:07.761Z,5.18
2023-02-23T08:50:14.969Z,5.50
2023-02-23T08:55:18.681Z,4.88
2023-02-23T09:00:22.905Z,4.40
2023-02-23T09:05:27.689Z,5.13
2023-02-23T09:10:32.279Z,5.18
2023-02-23T09:15:35.605Z,4.45
2023-02-23T09:20:42.886Z,4.88
2023-02-23T09:25:47.360Z,5.15
2023-02-23T09:30:50.714Z,5.10
2023-02-23T09:35:55.436Z,5.55
2023-02-23T09:40:58.810Z,5.10
2023-02-23T09:46:14.260Z,6.03
2023-02-23T09:51:22.759Z,5.05
2023-02-23T09:56:33.261Z,5.30
2023-02-23T10:02:00.137Z,6.30
2023-02-23T10:07:10.841Z,4.65
2023-02-23T10:12:21.048Z,5.20
2023-02-23T10:17:33.833Z,4.68
2023-02-23T10:22:40.781Z,5.15
2023-02-23T10:27:50.258Z,5.97
2023-02-23T10:33:00.604Z,5.45
2023-02-23T10:38:05.433Z,5.50
2023-02-23T10:43:08.909Z,6.32
2023-02-23T10:48:19.141Z,6.85
2023-02-23T10:53:26.862Z,5.95
2023-02-23T10:58:32.214Z,5.85
2023-02-23T11:03:40.111Z,5.65
2023-02-23T11:08:46.474Z,6.38
2023-02-23T11:13:51.470Z,6.03
2023-02-23T11:18:57.312Z,6.85
2023-02-23T11:24:16.777Z,6.75
2023-02-23T11:29:27.016Z,5.75
2023-02-23T11:34:32.353Z,5.57
2023-02-23T11:39:38.688Z,7.32
2023-02-23T11:44:42.431Z,6.85
2023-02-23T11:49:47.826Z,6.05
2023-02-23T11:54:57.321Z,5.97
2023-02-23T12:00:05.993Z,6.82
2023-02-23T12:05:21.319Z,6.35
2023-02-23T12:10:30.652Z,6.15
2023-02-23T12:15:41.852Z,6.30
2023-02-23T12:20:48.672Z,6.03
2023-02-23T12:25:59.716Z,6.15
2023-02-23T12:31:08.202Z,5.50
2023-02-23T12:36:22.268Z,6.30
2023-02-23T12:41:37.143Z,6.53
2023-02-23T12:46:48.386Z,7.13
2023-02-23T12:51:55.429Z,5.43
2023-02-23T12:57:13.248Z,6.28
2023-02-23T13:02:24.213Z,5.50
2023-02-23T13:07:39.335Z,6.70
2023-02-23T13:12:51.650Z,6.50
2023-02-23T13:18:01.648Z,6.65
2023-02-23T13:23:16.353Z,6.30
2023-02-23T13:28:29.414Z,6.05
2023-02-23T13:33:43.511Z,5.32
2023-02-23T13:38:59.890Z,5.93
2023-02-23T13:44:14.388Z,6.07
2023-02-23T13:49:28.844Z,6.25
2023-02-23T13:54:34.611Z,5.57
2023-02-23T13:59:45.508Z,6.03
2023-02-23T14:04:49.026Z,5.25
2023-02-23T14:09:56.813Z,5.53
2023-02-23T14:15:41.084Z,5.38
2023-02-23T14:20:53.467Z,5.18
2023-02-23T14:26:13.621Z,4.90
2023-02-23T14:31:35.784Z,5.57
2023-02-23T14:36:45.021Z,4.55
2023-02-23T14:41:51.914Z,6.00
2023-02-23T14:47:08.814Z,6.88
2023-02-23T14:52:20.918Z,6.30
2023-02-23T14:57:26.060Z,5.40
2023-02-23T15:02:32.112Z,5.18
2023-02-23T15:07:39.960Z,5.57
2023-02-23T15:12:43.402Z,4.88
2023-02-23T15:17:50.518Z,5.57
2023-02-23T15:22:57.662Z,5.13
2023-02-23T15:28:10.930Z,4.40
2023-02-23T15:33:19.496Z,5.15
2023-02-23T15:38:42.502Z,4.70
2023-02-23T15:43:46.776Z,4.57
2023-02-23T15:48:54.637Z,4.88
2023-02-23T15:53:58.420Z,5.10
2023-02-23T15:59:08.460Z,5.43
2023-02-23T16:04:19.461Z,5.20
2023-02-23T16:09:31.404Z,5.15
2023-02-23T16:14:43.668Z,5.13
2023-02-23T16:19:48.816Z,5.45
2023-02-23T16:25:03.080Z,4.70
2023-02-23T16:30:23.711Z,5.18
2023-02-23T16:35:37.940Z,4.95
2023-02-23T16:40:42.644Z,4.85
2023-02-23T16:45:46.770Z,6.07
2023-02-23T16:50:52.714Z,5.45
2023-02-23T16:56:01.304Z,5.63
2023-02-23T17:01:05.178Z,5.88
2023-02-23T17:06:11.186Z,6.75
2023-02-23T17:11:15.521Z,6.15
2023-02-23T17:16:20.102Z,5.10
2023-02-23T17:21:26.765Z,5.60
2023-02-23T17:26:33.070Z,5.55
2023-02-23T17:31:38.324Z,5.95
2023-02-23T17:36:44.498Z,5.90
2023-02-23T17:41:49.045Z,6.05
2023-02-23T17:46:53.313Z,5.80
2023-02-23T17:51:59.910Z,6.03
2023-02-23T17:57:04.601Z,4.72
2023-02-23T18:02:10.995Z,5.82
2023-02-23T18:07:24.900Z,5.65
2023-02-23T18:12:30.054Z,6.00
2023-02-23T18:17:37.937Z,6.25
2023-02-23T18:22:47.058Z,6.43
2023-02-23T18:27:56.324Z,6.25
2023-02-23T18:33:29.031Z,5.88
2023-02-23T18:38:41.663Z,5.32
2023-02-23T18:43:46.938Z,6.55
2023-02-23T18:48:55.163Z,5.93
2023-02-23T18:54:14.475Z,5.88
2023-02-23T18:59:23.515Z,5.07
2023-02-23T19:04:32.619Z,5.15
2023-02-23T19:09:55.133Z,5.88
2023-02-23T19:15:02.231Z,5.57
2023-02-23T19:20:15.950Z,6.53
2023-02-23T19:25:26.461Z,6.38
2023-02-23T19:30:34.602Z,6.00
2023-02-23T19:35:45.051Z,5.95
2023-02-23T19:40:52.376Z,5.97
2023-02-23T19:46:04.158Z,5.20
2023-02-23T19:51:12.218Z,5.85
2023-02-23T19:56:24.697Z,4.80
2023-02-23T20:01:31.730Z,6.20
2023-02-23T20:06:45.738Z,6.25
2023-02-23T20:12:01.474Z,6.57
2023-02-23T20:17:07.259Z,6.30
2023-02-23T20:22:13.892Z,6.15
2023-02-23T20:27:30.571Z,6.97
2023-02-23T20:32:35.030Z,6.43
2023-02-23T20:37:40.437Z,5.82
2023-02-23T20:42:49.404Z,5.70
2023-02-23T20:47:56.367Z,4.82
2023-02-23T20:53:02.986Z,6.80
2023-02-23T20:58:09.804Z,5.95
2023-02-23T21:03:16.098Z,6.25
2023-02-23T21:08:21.548Z,6.40
2023-02-23T21:13:29.057Z,7.13
2023-02-23T21:18:33.823Z,5.93
2023-02-23T21:23:39.163Z,6.35
2023-02-23T21:28:46.462Z,6.30
2023-02-23T21:33:50.924Z,5.57
2023-02-23T21:38:54.984Z,6.35
2023-02-23T21:44:03.525Z,5.82
2023-02-23T21:49:10.015Z,6.65
2023-02-23T21:54:13.793Z,6.18
2023-02-23T21:59:20.621Z,6.38
2023-02-23T22:04:23.960Z,5.78
2023-02-23T22:09:27.501Z,6.00
2023-02-23T22:14:32.217Z,6.50
2023-02-23T22:19:35.491Z,5.30
2023-02-23T22:24:39.124Z,6.35
2023-02-23T22:29:44.421Z,6.07
2023-02-23T22:34:47.838Z,6.75
2023-02-23T22:39:51.145Z,6.25
2023-02-23T22:44:55.874Z,6.85
2023-02-23T22:49:59.871Z,6.57
2023-02-23T22:55:04.080Z,7.07
2023-02-23T23:00:12.693Z,7.40
2023-02-23T23:05:16.864Z,6.35
2023-02-23T23:10:20.378Z,6.50
2023-02-23T23:15:25.077Z,6.55
2023-02-23T23:20:29.681Z,7.05
2023-02-23T23:25:33.017Z,6.85
2023-02-23T23:30:38.174Z,6.57
2023-02-23T23:35:42.761Z,7.10
2023-02-23T23:40:47.088Z,7.15
2023-02-23T23:45:52.082Z,6.50
2023-02-23T23:50:56.255Z,6.50
2023-02-23T23:56:06.392Z,7.57
